sensor_id;sensor_type;location;lat;lon;timestamp;temperature;humidity
73112;HTU21D;61301;51.956;5.876;2023-02-15T00:01:45;10.72;51.61
73112;HTU21D;61301;51.956;5.876;2023-02-15T00:04:19;10.63;51.88
73112;HTU21D;61301;51.956;5.876;2023-02-15T00:06:46;10.64;52.20
73112;HTU21D;61301;51.956;5.876;2023-02-15T00:09:13;10.67;52.03
73112;HTU21D;61301;51.956;5.876;2023-02-15T00:11:39;10.63;51.69
73112;HTU21D;61301;51.956;5.876;2023-02-15T00:14:11;10.63;51.88
73112;HTU21D;61301;51.956;5.876;2023-02-15T00:16:42;10.71;52.30
73112;HTU21D;61301;51.956;5.876;2023-02-15T00:19:10;10.78;52.16
73112;HTU21D;61301;51.956;5.876;2023-02-15T00:21:37;10.84;52.09
73112;HTU21D;61301;51.956;5.876;2023-02-15T00:24:06;10.86;52.04
73112;HTU21D;61301;51.956;5.876;2023-02-15T00:26:33;10.90;51.95
73112;HTU21D;61301;51.956;5.876;2023-02-15T00:28:59;10.95;51.93
73112;HTU21D;61301;51.956;5.876;2023-02-15T00:31:30;10.94;51.90
73112;HTU21D;61301;51.956;5.876;2023-02-15T00:34:14;10.97;52.20
73112;HTU21D;61301;51.956;5.876;2023-02-15T00:36:41;10.94;51.89
73112;HTU21D;61301;51.956;5.876;2023-02-15T00:39:08;10.93;52.01
73112;HTU21D;61301;51.956;5.876;2023-02-15T00:41:35;10.96;51.87
73112;HTU21D;61301;51.956;5.876;2023-02-15T00:44:02;10.74;51.67
73112;HTU21D;61301;51.956;5.876;2023-02-15T00:46:29;10.64;51.70
73112;HTU21D;61301;51.956;5.876;2023-02-15T00:48:55;10.58;51.80
73112;HTU21D;61301;51.956;5.876;2023-02-15T00:51:22;10.56;51.88
73112;HTU21D;61301;51.956;5.876;2023-02-15T00:53:48;10.49;51.63
73112;HTU21D;61301;51.956;5.876;2023-02-15T00:56:14;10.37;51.71
73112;HTU21D;61301;51.956;5.876;2023-02-15T00:58:44;10.26;51.60
73112;HTU21D;61301;51.956;5.876;2023-02-15T01:01:13;10.12;51.50
73112;HTU21D;61301;51.956;5.876;2023-02-15T01:03:39;9.97;51.98
73112;HTU21D;61301;51.956;5.876;2023-02-15T01:06:09;9.98;52.21
73112;HTU21D;61301;51.956;5.876;2023-02-15T01:08:43;10.09;52.85
73112;HTU21D;61301;51.956;5.876;2023-02-15T01:11:14;10.16;52.81
73112;HTU21D;61301;51.956;5.876;2023-02-15T01:13:41;10.19;52.88
73112;HTU21D;61301;51.956;5.876;2023-02-15T01:16:07;10.21;52.58
73112;HTU21D;61301;51.956;5.876;2023-02-15T01:18:35;10.19;52.37
73112;HTU21D;61301;51.956;5.876;2023-02-15T01:21:09;9.99;52.18
73112;HTU21D;61301;51.956;5.876;2023-02-15T01:23:35;9.86;52.24
73112;HTU21D;61301;51.956;5.876;2023-02-15T01:26:02;9.81;52.49
73112;HTU21D;61301;51.956;5.876;2023-02-15T01:28:28;9.81;52.84
73112;HTU21D;61301;51.956;5.876;2023-02-15T01:30:54;9.90;53.39
73112;HTU21D;61301;51.956;5.876;2023-02-15T01:33:20;9.97;53.31
73112;HTU21D;61301;51.956;5.876;2023-02-15T01:35:46;9.97;52.98
73112;HTU21D;61301;51.956;5.876;2023-02-15T01:38:13;9.91;52.76
73112;HTU21D;61301;51.956;5.876;2023-02-15T01:40:39;9.90;52.53
73112;HTU21D;61301;51.956;5.876;2023-02-15T01:43:10;9.77;52.94
73112;HTU21D;61301;51.956;5.876;2023-02-15T01:45:38;9.62;53.04
73112;HTU21D;61301;51.956;5.876;2023-02-15T01:50:53;9.78;53.39
73112;HTU21D;61301;51.956;5.876;2023-02-15T01:54:21;9.91;53.23
73112;HTU21D;61301;51.956;5.876;2023-02-15T01:56:24;9.99;54.07
73112;HTU21D;61301;51.956;5.876;2023-02-15T01:58:53;10.01;53.37
73112;HTU21D;61301;51.956;5.876;2023-02-15T02:01:19;10.01;53.29
73112;HTU21D;61301;51.956;5.876;2023-02-15T02:04:06;10.03;53.35
73112;HTU21D;61301;51.956;5.876;2023-02-15T02:06:35;10.06;53.33
73112;HTU21D;61301;51.956;5.876;2023-02-15T02:09:02;10.05;53.14
73112;HTU21D;61301;51.956;5.876;2023-02-15T02:11:28;9.98;52.94
73112;HTU21D;61301;51.956;5.876;2023-02-15T02:13:55;9.84;52.65
73112;HTU21D;61301;51.956;5.876;2023-02-15T02:28:13;9.33;52.69
73112;HTU21D;61301;51.956;5.876;2023-02-15T02:42:28;9.65;53.96
73112;HTU21D;61301;51.956;5.876;2023-02-15T02:45:10;9.65;53.59
73112;HTU21D;61301;51.956;5.876;2023-02-15T02:47:52;9.59;53.33
73112;HTU21D;61301;51.956;5.876;2023-02-15T02:50:26;9.54;53.26
73112;HTU21D;61301;51.956;5.876;2023-02-15T02:52:54;9.48;53.07
73112;HTU21D;61301;51.956;5.876;2023-02-15T02:58:01;9.51;53.36
73112;HTU21D;61301;51.956;5.876;2023-02-15T03:00:33;9.41;53.10
73112;HTU21D;61301;51.956;5.876;2023-02-15T03:03:20;9.33;53.34
73112;HTU21D;61301;51.956;5.876;2023-02-15T03:05:50;9.25;53.41
73112;HTU21D;61301;51.956;5.876;2023-02-15T03:08:21;9.23;53.41
73112;HTU21D;61301;51.956;5.876;2023-02-15T03:10:54;9.21;53.41
73112;HTU21D;61301;51.956;5.876;2023-02-15T03:13:22;9.27;53.87
73112;HTU21D;61301;51.956;5.876;2023-02-15T03:15:48;9.36;54.07
73112;HTU21D;61301;51.956;5.876;2023-02-15T03:18:41;9.45;54.01
73112;HTU21D;61301;51.956;5.876;2023-02-15T03:21:11;9.45;53.78
73112;HTU21D;61301;51.956;5.876;2023-02-15T03:24:04;9.42;53.76
73112;HTU21D;61301;51.956;5.876;2023-02-15T03:26:34;9.40;53.62
73112;HTU21D;61301;51.956;5.876;2023-02-15T03:29:04;9.37;53.66
73112;HTU21D;61301;51.956;5.876;2023-02-15T03:31:34;9.40;53.62
73112;HTU21D;61301;51.956;5.876;2023-02-15T03:34:07;9.41;53.36
73112;HTU21D;61301;51.956;5.876;2023-02-15T03:36:58;9.35;53.15
73112;HTU21D;61301;51.956;5.876;2023-02-15T03:44:55;9.14;53.50
73112;HTU21D;61301;51.956;5.876;2023-02-15T03:47:30;9.02;53.43
73112;HTU21D;61301;51.956;5.876;2023-02-15T03:50:05;8.76;53.80
73112;HTU21D;61301;51.956;5.876;2023-02-15T03:52:54;8.76;54.23
73112;HTU21D;61301;51.956;5.876;2023-02-15T03:55:21;8.82;54.13
73112;HTU21D;61301;51.956;5.876;2023-02-15T03:57:48;8.75;53.81
73112;HTU21D;61301;51.956;5.876;2023-02-15T04:00:36;8.64;53.65
73112;HTU21D;61301;51.956;5.876;2023-02-15T04:03:33;8.62;53.73
73112;HTU21D;61301;51.956;5.876;2023-02-15T04:06:01;8.63;53.84
73112;HTU21D;61301;51.956;5.876;2023-02-15T04:08:28;8.61;53.78
73112;HTU21D;61301;51.956;5.876;2023-02-15T04:11:13;8.58;53.79
73112;HTU21D;61301;51.956;5.876;2023-02-15T04:13:39;8.55;53.97
73112;HTU21D;61301;51.956;5.876;2023-02-15T04:16:05;8.56;54.11
73112;HTU21D;61301;51.956;5.876;2023-02-15T04:18:33;8.62;54.16
73112;HTU21D;61301;51.956;5.876;2023-02-15T04:21:19;8.60;54.23
73112;HTU21D;61301;51.956;5.876;2023-02-15T04:24:05;8.61;53.86
73112;HTU21D;61301;51.956;5.876;2023-02-15T04:26:49;8.59;53.83
73112;HTU21D;61301;51.956;5.876;2023-02-15T04:29:19;8.57;54.09
73112;HTU21D;61301;51.956;5.876;2023-02-15T04:31:46;8.47;54.03
73112;HTU21D;61301;51.956;5.876;2023-02-15T04:34:13;8.46;53.93
73112;HTU21D;61301;51.956;5.876;2023-02-15T04:36:39;8.43;54.45
73112;HTU21D;61301;51.956;5.876;2023-02-15T04:39:06;8.51;54.43
73112;HTU21D;61301;51.956;5.876;2023-02-15T04:41:32;8.62;54.49
73112;HTU21D;61301;51.956;5.876;2023-02-15T04:43:59;8.60;54.29
73112;HTU21D;61301;51.956;5.876;2023-02-15T04:46:27;8.53;53.95
73112;HTU21D;61301;51.956;5.876;2023-02-15T04:48:53;8.52;53.94
73112;HTU21D;61301;51.956;5.876;2023-02-15T04:51:20;8.51;53.85
73112;HTU21D;61301;51.956;5.876;2023-02-15T04:53:46;8.51;53.88
73112;HTU21D;61301;51.956;5.876;2023-02-15T04:56:12;8.51;53.83
73112;HTU21D;61301;51.956;5.876;2023-02-15T04:58:38;8.52;53.90
73112;HTU21D;61301;51.956;5.876;2023-02-15T05:01:10;8.39;54.05
73112;HTU21D;61301;51.956;5.876;2023-02-15T05:03:36;8.34;54.07
73112;HTU21D;61301;51.956;5.876;2023-02-15T05:06:03;8.38;54.08
73112;HTU21D;61301;51.956;5.876;2023-02-15T05:08:29;8.34;53.86
73112;HTU21D;61301;51.956;5.876;2023-02-15T05:10:56;8.33;53.70
73112;HTU21D;61301;51.956;5.876;2023-02-15T05:13:22;8.30;53.65
73112;HTU21D;61301;51.956;5.876;2023-02-15T05:15:50;8.26;53.60
73112;HTU21D;61301;51.956;5.876;2023-02-15T05:18:17;8.14;53.72
73112;HTU21D;61301;51.956;5.876;2023-02-15T05:20:43;8.01;53.81
73112;HTU21D;61301;51.956;5.876;2023-02-15T05:23:09;7.87;54.10
73112;HTU21D;61301;51.956;5.876;2023-02-15T05:25:36;7.76;54.27
73112;HTU21D;61301;51.956;5.876;2023-02-15T05:28:21;7.70;54.35
73112;HTU21D;61301;51.956;5.876;2023-02-15T05:31:12;7.72;54.49
73112;HTU21D;61301;51.956;5.876;2023-02-15T05:33:38;7.75;54.95
73112;HTU21D;61301;51.956;5.876;2023-02-15T05:36:05;7.76;55.10
73112;HTU21D;61301;51.956;5.876;2023-02-15T05:38:31;7.86;55.05
73112;HTU21D;61301;51.956;5.876;2023-02-15T05:40:58;7.98;54.84
73112;HTU21D;61301;51.956;5.876;2023-02-15T05:43:27;8.00;54.84
73112;HTU21D;61301;51.956;5.876;2023-02-15T05:45:54;8.01;54.88
73112;HTU21D;61301;51.956;5.876;2023-02-15T05:48:22;8.06;54.92
73112;HTU21D;61301;51.956;5.876;2023-02-15T05:51:00;8.15;54.82
73112;HTU21D;61301;51.956;5.876;2023-02-15T05:53:27;8.12;54.64
73112;HTU21D;61301;51.956;5.876;2023-02-15T05:55:54;8.05;54.56
73112;HTU21D;61301;51.956;5.876;2023-02-15T05:58:28;7.99;54.68
73112;HTU21D;61301;51.956;5.876;2023-02-15T06:00:55;7.90;54.66
73112;HTU21D;61301;51.956;5.876;2023-02-15T06:03:22;7.92;54.90
73112;HTU21D;61301;51.956;5.876;2023-02-15T06:05:48;7.99;54.97
73112;HTU21D;61301;51.956;5.876;2023-02-15T06:08:14;8.04;55.07
73112;HTU21D;61301;51.956;5.876;2023-02-15T06:10:41;8.05;54.90
73112;HTU21D;61301;51.956;5.876;2023-02-15T06:13:07;8.04;54.75
73112;HTU21D;61301;51.956;5.876;2023-02-15T06:15:33;8.05;54.86
73112;HTU21D;61301;51.956;5.876;2023-02-15T06:17:59;8.03;55.26
73112;HTU21D;61301;51.956;5.876;2023-02-15T06:20:25;8.08;55.23
73112;HTU21D;61301;51.956;5.876;2023-02-15T06:22:51;8.13;55.20
73112;HTU21D;61301;51.956;5.876;2023-02-15T06:25:17;8.16;54.98
73112;HTU21D;61301;51.956;5.876;2023-02-15T06:27:43;8.20;54.76
73112;HTU21D;61301;51.956;5.876;2023-02-15T06:30:10;8.23;54.55
73112;HTU21D;61301;51.956;5.876;2023-02-15T06:32:36;8.18;54.52
73112;HTU21D;61301;51.956;5.876;2023-02-15T06:35:03;8.03;54.53
73112;HTU21D;61301;51.956;5.876;2023-02-15T06:37:29;7.98;54.75
73112;HTU21D;61301;51.956;5.876;2023-02-15T06:39:55;7.89;54.88
73112;HTU21D;61301;51.956;5.876;2023-02-15T06:42:22;7.78;54.74
73112;HTU21D;61301;51.956;5.876;2023-02-15T06:44:48;7.75;54.80
73112;HTU21D;61301;51.956;5.876;2023-02-15T06:47:14;7.77;54.91
73112;HTU21D;61301;51.956;5.876;2023-02-15T06:49:40;7.76;54.87
73112;HTU21D;61301;51.956;5.876;2023-02-15T06:52:06;7.73;54.77
73112;HTU21D;61301;51.956;5.876;2023-02-15T06:54:32;7.69;54.77
73112;HTU21D;61301;51.956;5.876;2023-02-15T06:56:58;7.63;55.23
73112;HTU21D;61301;51.956;5.876;2023-02-15T06:59:24;7.55;55.31
73112;HTU21D;61301;51.956;5.876;2023-02-15T07:01:50;7.52;55.51
73112;HTU21D;61301;51.956;5.876;2023-02-15T07:04:16;7.50;55.45
73112;HTU21D;61301;51.956;5.876;2023-02-15T07:06:42;7.52;55.45
73112;HTU21D;61301;51.956;5.876;2023-02-15T07:09:08;7.61;55.41
73112;HTU21D;61301;51.956;5.876;2023-02-15T07:11:34;7.69;55.43
73112;HTU21D;61301;51.956;5.876;2023-02-15T07:14:19;7.72;55.64
73112;HTU21D;61301;51.956;5.876;2023-02-15T07:16:45;7.65;55.55
73112;HTU21D;61301;51.956;5.876;2023-02-15T07:19:11;7.63;55.53
73112;HTU21D;61301;51.956;5.876;2023-02-15T07:21:37;7.68;55.66
73112;HTU21D;61301;51.956;5.876;2023-02-15T07:24:03;7.75;55.59
73112;HTU21D;61301;51.956;5.876;2023-02-15T07:26:31;7.72;56.08
73112;HTU21D;61301;51.956;5.876;2023-02-15T07:28:57;7.68;56.10
73112;HTU21D;61301;51.956;5.876;2023-02-15T07:31:23;7.64;56.12
73112;HTU21D;61301;51.956;5.876;2023-02-15T07:33:49;7.63;56.26
73112;HTU21D;61301;51.956;5.876;2023-02-15T07:36:15;7.63;56.26
73112;HTU21D;61301;51.956;5.876;2023-02-15T07:38:41;7.65;56.61
73112;HTU21D;61301;51.956;5.876;2023-02-15T07:41:10;7.62;56.73
73112;HTU21D;61301;51.956;5.876;2023-02-15T07:43:39;7.61;57.06
73112;HTU21D;61301;51.956;5.876;2023-02-15T07:46:10;7.62;57.51
73112;HTU21D;61301;51.956;5.876;2023-02-15T07:48:38;7.57;57.88
73112;HTU21D;61301;51.956;5.876;2023-02-15T07:51:06;7.57;57.68
73112;HTU21D;61301;51.956;5.876;2023-02-15T07:53:33;7.58;58.02
73112;HTU21D;61301;51.956;5.876;2023-02-15T07:56:00;7.55;58.45
73112;HTU21D;61301;51.956;5.876;2023-02-15T07:58:26;7.64;58.21
73112;HTU21D;61301;51.956;5.876;2023-02-15T08:01:13;7.72;57.88
73112;HTU21D;61301;51.956;5.876;2023-02-15T08:03:40;7.84;57.55
73112;HTU21D;61301;51.956;5.876;2023-02-15T08:06:06;8.00;57.43
73112;HTU21D;61301;51.956;5.876;2023-02-15T08:08:35;8.04;57.89
73112;HTU21D;61301;51.956;5.876;2023-02-15T08:13:53;8.17;57.70
73112;HTU21D;61301;51.956;5.876;2023-02-15T08:16:28;8.26;57.30
73112;HTU21D;61301;51.956;5.876;2023-02-15T08:18:55;8.34;57.10
73112;HTU21D;61301;51.956;5.876;2023-02-15T08:21:22;8.46;57.35
73112;HTU21D;61301;51.956;5.876;2023-02-15T08:23:48;8.49;57.26
73112;HTU21D;61301;51.956;5.876;2023-02-15T08:26:15;8.57;57.03
73112;HTU21D;61301;51.956;5.876;2023-02-15T08:28:42;8.64;56.89
73112;HTU21D;61301;51.956;5.876;2023-02-15T08:31:10;8.74;56.64
73112;HTU21D;61301;51.956;5.876;2023-02-15T08:33:38;8.87;56.48
73112;HTU21D;61301;51.956;5.876;2023-02-15T08:36:06;8.95;56.52
73112;HTU21D;61301;51.956;5.876;2023-02-15T08:38:33;9.00;56.42
73112;HTU21D;61301;51.956;5.876;2023-02-15T08:41:33;9.16;56.19
73112;HTU21D;61301;51.956;5.876;2023-02-15T08:44:02;9.23;56.22
73112;HTU21D;61301;51.956;5.876;2023-02-15T08:46:32;9.25;56.12
73112;HTU21D;61301;51.956;5.876;2023-02-15T08:48:58;9.32;56.01
73112;HTU21D;61301;51.956;5.876;2023-02-15T08:51:32;9.39;55.96
73112;HTU21D;61301;51.956;5.876;2023-02-15T08:54:01;9.51;55.98
73112;HTU21D;61301;51.956;5.876;2023-02-15T08:56:30;9.56;56.00
73112;HTU21D;61301;51.956;5.876;2023-02-15T08:58:57;9.62;55.93
73112;HTU21D;61301;51.956;5.876;2023-02-15T09:01:26;9.75;55.61
73112;HTU21D;61301;51.956;5.876;2023-02-15T09:03:56;9.70;55.38
73112;HTU21D;61301;51.956;5.876;2023-02-15T09:06:22;9.76;55.77
73112;HTU21D;61301;51.956;5.876;2023-02-15T09:08:50;9.88;55.48
73112;HTU21D;61301;51.956;5.876;2023-02-15T09:11:28;9.95;55.68
73112;HTU21D;61301;51.956;5.876;2023-02-15T09:13:59;10.10;55.20
73112;HTU21D;61301;51.956;5.876;2023-02-15T09:16:27;10.23;55.16
73112;HTU21D;61301;51.956;5.876;2023-02-15T09:18:54;10.42;54.75
73112;HTU21D;61301;51.956;5.876;2023-02-15T09:21:22;10.42;54.20
73112;HTU21D;61301;51.956;5.876;2023-02-15T09:23:50;10.53;54.45
73112;HTU21D;61301;51.956;5.876;2023-02-15T09:26:18;10.66;54.28
73112;HTU21D;61301;51.956;5.876;2023-02-15T09:28:46;10.80;53.49
73112;HTU21D;61301;51.956;5.876;2023-02-15T09:31:21;10.86;53.88
73112;HTU21D;61301;51.956;5.876;2023-02-15T09:33:48;10.98;53.52
73112;HTU21D;61301;51.956;5.876;2023-02-15T09:36:15;11.07;53.30
73112;HTU21D;61301;51.956;5.876;2023-02-15T09:38:42;11.18;53.48
73112;HTU21D;61301;51.956;5.876;2023-02-15T09:55:17;11.68;52.26
73112;HTU21D;61301;51.956;5.876;2023-02-15T10:23:03;12.97;50.31
73112;HTU21D;61301;51.956;5.876;2023-02-15T10:25:53;13.10;49.64
73112;HTU21D;61301;51.956;5.876;2023-02-15T10:28:42;13.25;49.27
73112;HTU21D;61301;51.956;5.876;2023-02-15T10:34:17;13.48;49.05
73112;HTU21D;61301;51.956;5.876;2023-02-15T10:42:51;13.91;48.21
73112;HTU21D;61301;51.956;5.876;2023-02-15T10:51:00;14.27;47.28
73112;HTU21D;61301;51.956;5.876;2023-02-15T10:53:51;14.52;46.41
73112;HTU21D;61301;51.956;5.876;2023-02-15T10:56:39;14.66;45.46
73112;HTU21D;61301;51.956;5.876;2023-02-15T11:04:55;14.91;43.15
73112;HTU21D;61301;51.956;5.876;2023-02-15T11:07:28;14.60;44.28
73112;HTU21D;61301;51.956;5.876;2023-02-15T11:10:28;14.86;43.01
73112;HTU21D;61301;51.956;5.876;2023-02-15T11:12:57;15.03;42.71
73112;HTU21D;61301;51.956;5.876;2023-02-15T11:16:04;15.15;42.23
73112;HTU21D;61301;51.956;5.876;2023-02-15T11:18:35;15.25;42.86
73112;HTU21D;61301;51.956;5.876;2023-02-15T11:21:10;15.03;42.35
73112;HTU21D;61301;51.956;5.876;2023-02-15T11:23:44;15.18;43.21
73112;HTU21D;61301;51.956;5.876;2023-02-15T11:29:51;15.29;42.27
73112;HTU21D;61301;51.956;5.876;2023-02-15T11:32:28;15.40;41.97
73112;HTU21D;61301;51.956;5.876;2023-02-15T11:40:23;15.54;41.96
73112;HTU21D;61301;51.956;5.876;2023-02-15T11:42:56;15.60;42.54
73112;HTU21D;61301;51.956;5.876;2023-02-15T11:45:28;15.90;41.96
73112;HTU21D;61301;51.956;5.876;2023-02-15T11:47:56;16.13;41.44
73112;HTU21D;61301;51.956;5.876;2023-02-15T11:50:25;16.22;40.40
73112;HTU21D;61301;51.956;5.876;2023-02-15T11:52:53;16.27;41.51
73112;HTU21D;61301;51.956;5.876;2023-02-15T11:55:22;16.36;40.46
73112;HTU21D;61301;51.956;5.876;2023-02-15T11:58:04;16.46;40.58
73112;HTU21D;61301;51.956;5.876;2023-02-15T12:00:35;16.45;40.75
73112;HTU21D;61301;51.956;5.876;2023-02-15T12:05:50;16.21;40.96
73112;HTU21D;61301;51.956;5.876;2023-02-15T12:08:20;16.02;41.42
73112;HTU21D;61301;51.956;5.876;2023-02-15T12:13:33;16.17;41.41
73112;HTU21D;61301;51.956;5.876;2023-02-15T12:16:06;16.45;40.88
73112;HTU21D;61301;51.956;5.876;2023-02-15T12:21:10;16.56;40.68
73112;HTU21D;61301;51.956;5.876;2023-02-15T12:24:47;16.54;39.44
73112;HTU21D;61301;51.956;5.876;2023-02-15T12:29:51;16.36;40.91
73112;HTU21D;61301;51.956;5.876;2023-02-15T12:32:22;16.22;41.00
73112;HTU21D;61301;51.956;5.876;2023-02-15T12:34:49;16.52;40.93
73112;HTU21D;61301;51.956;5.876;2023-02-15T12:37:19;16.73;40.23
73112;HTU21D;61301;51.956;5.876;2023-02-15T12:39:58;16.74;40.70
73112;HTU21D;61301;51.956;5.876;2023-02-15T12:42:26;16.85;39.97
73112;HTU21D;61301;51.956;5.876;2023-02-15T12:45:19;16.70;40.03
73112;HTU21D;61301;51.956;5.876;2023-02-15T12:47:47;16.65;39.87
73112;HTU21D;61301;51.956;5.876;2023-02-15T12:50:23;16.60;40.10
73112;HTU21D;61301;51.956;5.876;2023-02-15T12:53:07;16.55;40.88
73112;HTU21D;61301;51.956;5.876;2023-02-15T12:55:33;16.91;40.39
73112;HTU21D;61301;51.956;5.876;2023-02-15T12:58:07;17.07;40.52
73112;HTU21D;61301;51.956;5.876;2023-02-15T13:00:33;17.08;40.30
73112;HTU21D;61301;51.956;5.876;2023-02-15T13:03:00;17.23;39.68
73112;HTU21D;61301;51.956;5.876;2023-02-15T13:05:38;17.35;39.40
73112;HTU21D;61301;51.956;5.876;2023-02-15T13:08:12;17.29;39.78
73112;HTU21D;61301;51.956;5.876;2023-02-15T13:10:54;17.62;39.80
73112;HTU21D;61301;51.956;5.876;2023-02-15T13:13:24;18.33;37.68
73112;HTU21D;61301;51.956;5.876;2023-02-15T13:15:52;18.39;37.99
73112;HTU21D;61301;51.956;5.876;2023-02-15T13:18:32;18.06;37.89
73112;HTU21D;61301;51.956;5.876;2023-02-15T13:21:06;17.96;38.73
73112;HTU21D;61301;51.956;5.876;2023-02-15T13:23:35;18.20;38.08
73112;HTU21D;61301;51.956;5.876;2023-02-15T13:26:04;17.88;38.65
73112;HTU21D;61301;51.956;5.876;2023-02-15T13:28:44;17.96;38.78
73112;HTU21D;61301;51.956;5.876;2023-02-15T13:31:15;17.94;38.79
73112;HTU21D;61301;51.956;5.876;2023-02-15T13:34:16;17.96;38.86
73112;HTU21D;61301;51.956;5.876;2023-02-15T13:37:08;18.17;38.91
73112;HTU21D;61301;51.956;5.876;2023-02-15T13:39:49;18.40;38.62
73112;HTU21D;61301;51.956;5.876;2023-02-15T13:42:24;18.57;38.11
73112;HTU21D;61301;51.956;5.876;2023-02-15T13:55:52;18.34;37.52
73112;HTU21D;61301;51.956;5.876;2023-02-15T14:01:31;18.37;37.55
73112;HTU21D;61301;51.956;5.876;2023-02-15T14:20:45;17.70;39.11
73112;HTU21D;61301;51.956;5.876;2023-02-15T14:31:08;17.93;38.64
73112;HTU21D;61301;51.956;5.876;2023-02-15T14:33:40;17.87;38.71
73112;HTU21D;61301;51.956;5.876;2023-02-15T14:36:08;17.88;39.07
73112;HTU21D;61301;51.956;5.876;2023-02-15T14:38:38;17.99;38.60
73112;HTU21D;61301;51.956;5.876;2023-02-15T14:54:09;18.03;38.91
73112;HTU21D;61301;51.956;5.876;2023-02-15T14:56:36;17.85;39.18
73112;HTU21D;61301;51.956;5.876;2023-02-15T14:59:24;17.77;39.62
73112;HTU21D;61301;51.956;5.876;2023-02-15T15:04:38;17.80;39.91
73112;HTU21D;61301;51.956;5.876;2023-02-15T15:07:17;17.78;39.70
73112;HTU21D;61301;51.956;5.876;2023-02-15T15:09:48;17.81;40.10
73112;HTU21D;61301;51.956;5.876;2023-02-15T15:14:53;17.78;39.74
73112;HTU21D;61301;51.956;5.876;2023-02-15T15:20:13;18.07;39.88
73112;HTU21D;61301;51.956;5.876;2023-02-15T15:22:42;17.87;39.62
73112;HTU21D;61301;51.956;5.876;2023-02-15T15:27:54;17.79;39.99
73112;HTU21D;61301;51.956;5.876;2023-02-15T15:41:44;18.12;39.23
73112;HTU21D;61301;51.956;5.876;2023-02-15T15:49:37;18.09;39.82
73112;HTU21D;61301;51.956;5.876;2023-02-15T15:52:18;18.21;39.68
73112;HTU21D;61301;51.956;5.876;2023-02-15T15:54:48;18.15;39.68
73112;HTU21D;61301;51.956;5.876;2023-02-15T15:59:51;18.35;39.35
73112;HTU21D;61301;51.956;5.876;2023-02-15T16:02:19;18.12;39.78
73112;HTU21D;61301;51.956;5.876;2023-02-15T16:04:45;17.59;40.63
73112;HTU21D;61301;51.956;5.876;2023-02-15T16:09:59;17.90;39.89
73112;HTU21D;61301;51.956;5.876;2023-02-15T16:12:27;17.69;39.97
73112;HTU21D;61301;51.956;5.876;2023-02-15T16:14:55;17.54;40.33
73112;HTU21D;61301;51.956;5.876;2023-02-15T16:17:27;17.47;40.78
73112;HTU21D;61301;51.956;5.876;2023-02-15T16:20:18;17.41;40.78
73112;HTU21D;61301;51.956;5.876;2023-02-15T16:22:47;17.41;40.71
73112;HTU21D;61301;51.956;5.876;2023-02-15T16:28:06;17.61;41.20
73112;HTU21D;61301;51.956;5.876;2023-02-15T16:30:34;17.64;40.82
73112;HTU21D;61301;51.956;5.876;2023-02-15T16:33:10;17.67;40.54
73112;HTU21D;61301;51.956;5.876;2023-02-15T16:35:38;17.53;40.87
73112;HTU21D;61301;51.956;5.876;2023-02-15T16:38:08;17.53;41.08
73112;HTU21D;61301;51.956;5.876;2023-02-15T16:40:48;17.56;41.03
73112;HTU21D;61301;51.956;5.876;2023-02-15T16:43:20;17.47;40.85
73112;HTU21D;61301;51.956;5.876;2023-02-15T16:45:47;17.32;40.97
73112;HTU21D;61301;51.956;5.876;2023-02-15T16:48:19;17.18;41.13
73112;HTU21D;61301;51.956;5.876;2023-02-15T16:50:54;17.01;41.35
73112;HTU21D;61301;51.956;5.876;2023-02-15T16:53:26;16.94;41.57
73112;HTU21D;61301;51.956;5.876;2023-02-15T16:55:55;16.87;41.73
73112;HTU21D;61301;51.956;5.876;2023-02-15T16:58:32;16.88;41.83
73112;HTU21D;61301;51.956;5.876;2023-02-15T17:01:02;16.91;42.24
73112;HTU21D;61301;51.956;5.876;2023-02-15T17:03:28;16.87;41.93
73112;HTU21D;61301;51.956;5.876;2023-02-15T17:05:57;16.66;42.09
73112;HTU21D;61301;51.956;5.876;2023-02-15T17:08:27;16.48;42.49
73112;HTU21D;61301;51.956;5.876;2023-02-15T17:13:26;16.21;43.05
73112;HTU21D;61301;51.956;5.876;2023-02-15T17:18:30;15.91;43.55
73112;HTU21D;61301;51.956;5.876;2023-02-15T17:20:59;15.91;43.52
73112;HTU21D;61301;51.956;5.876;2023-02-15T17:23:31;15.83;43.74
73112;HTU21D;61301;51.956;5.876;2023-02-15T17:25:58;15.73;43.82
73112;HTU21D;61301;51.956;5.876;2023-02-15T17:28:28;15.71;43.83
73112;HTU21D;61301;51.956;5.876;2023-02-15T17:30:55;15.80;43.70
73112;HTU21D;61301;51.956;5.876;2023-02-15T17:33:23;15.85;43.84
73112;HTU21D;61301;51.956;5.876;2023-02-15T17:36:20;15.86;43.79
73112;HTU21D;61301;51.956;5.876;2023-02-15T17:39:20;15.70;43.80
73112;HTU21D;61301;51.956;5.876;2023-02-15T17:41:47;15.66;44.04
73112;HTU21D;61301;51.956;5.876;2023-02-15T17:44:13;15.58;44.03
73112;HTU21D;61301;51.956;5.876;2023-02-15T17:46:41;15.46;44.14
73112;HTU21D;61301;51.956;5.876;2023-02-15T17:49:18;15.43;44.20
73112;HTU21D;61301;51.956;5.876;2023-02-15T17:51:48;15.33;44.42
73112;HTU21D;61301;51.956;5.876;2023-02-15T17:54:14;15.34;44.48
73112;HTU21D;61301;51.956;5.876;2023-02-15T17:56:58;15.14;44.80
73112;HTU21D;61301;51.956;5.876;2023-02-15T17:59:30;15.06;44.95
73112;HTU21D;61301;51.956;5.876;2023-02-15T18:01:56;15.00;44.99
73112;HTU21D;61301;51.956;5.876;2023-02-15T18:04:41;14.98;45.13
73112;HTU21D;61301;51.956;5.876;2023-02-15T18:07:25;15.00;44.97
73112;HTU21D;61301;51.956;5.876;2023-02-15T18:10:17;15.00;45.13
73112;HTU21D;61301;51.956;5.876;2023-02-15T18:13:02;15.09;44.79
73112;HTU21D;61301;51.956;5.876;2023-02-15T18:15:29;15.21;44.71
73112;HTU21D;61301;51.956;5.876;2023-02-15T18:17:55;15.33;44.45
73112;HTU21D;61301;51.956;5.876;2023-02-15T18:20:23;15.37;44.31
73112;HTU21D;61301;51.956;5.876;2023-02-15T18:22:53;15.41;44.25
73112;HTU21D;61301;51.956;5.876;2023-02-15T18:25:21;15.43;44.31
73112;HTU21D;61301;51.956;5.876;2023-02-15T18:27:48;15.41;44.35
73112;HTU21D;61301;51.956;5.876;2023-02-15T18:30:17;15.43;44.30
73112;HTU21D;61301;51.956;5.876;2023-02-15T18:32:44;15.44;44.33
73112;HTU21D;61301;51.956;5.876;2023-02-15T18:35:22;15.46;44.29
73112;HTU21D;61301;51.956;5.876;2023-02-15T18:37:49;15.40;44.27
73112;HTU21D;61301;51.956;5.876;2023-02-15T18:40:22;15.31;44.34
73112;HTU21D;61301;51.956;5.876;2023-02-15T18:42:48;15.27;44.70
73112;HTU21D;61301;51.956;5.876;2023-02-15T18:45:20;15.28;44.81
73112;HTU21D;61301;51.956;5.876;2023-02-15T18:47:47;15.34;45.00
73112;HTU21D;61301;51.956;5.876;2023-02-15T18:50:16;15.43;45.28
73112;HTU21D;61301;51.956;5.876;2023-02-15T18:52:45;15.51;44.88
73112;HTU21D;61301;51.956;5.876;2023-02-15T18:55:25;15.47;44.77
73112;HTU21D;61301;51.956;5.876;2023-02-15T18:57:54;15.40;44.77
73112;HTU21D;61301;51.956;5.876;2023-02-15T19:02:49;15.09;45.61
73112;HTU21D;61301;51.956;5.876;2023-02-15T19:05:16;15.27;45.17
73112;HTU21D;61301;51.956;5.876;2023-02-15T19:07:45;15.30;45.04
73112;HTU21D;61301;51.956;5.876;2023-02-15T19:10:18;15.22;44.97
73112;HTU21D;61301;51.956;5.876;2023-02-15T19:12:45;15.13;45.08
73112;HTU21D;61301;51.956;5.876;2023-02-15T19:15:17;15.13;45.10
73112;HTU21D;61301;51.956;5.876;2023-02-15T19:17:43;14.97;45.17
73112;HTU21D;61301;51.956;5.876;2023-02-15T19:20:18;14.88;45.45